createdAt,value
2023-04-27T00:02:14.626Z,6.91
2023-04-27T00:04:47.431Z,7.47
2023-04-27T00:07:19.911Z,7.84
2023-04-27T00:09:54.675Z,8.21
2023-04-27T00:12:27.289Z,7.81
2023-04-27T00:14:59.456Z,8.14
2023-04-27T00:17:32.412Z,7.71
2023-04-27T00:20:05.584Z,7.67
2023-04-27T00:22:37.842Z,7.56
2023-04-27T00:25:13.596Z,8.24
2023-04-27T00:27:45.781Z,8.54
2023-04-27T00:30:18.321Z,9.00
2023-04-27T00:32:50.554Z,9.28
2023-04-27T00:35:22.904Z,9.44
2023-04-27T00:37:57.370Z,9.06
2023-04-27T00:40:32.246Z,8.82
2023-04-27T00:43:04.432Z,8.80
2023-04-27T00:45:39.695Z,9.51
2023-04-27T00:48:11.991Z,9.19
2023-04-27T00:50:44.458Z,9.77
2023-04-27T00:53:17.325Z,9.06
2023-04-27T00:55:52.281Z,8.86
2023-04-27T00:58:24.447Z,8.88
2023-04-27T01:00:56.977Z,9.15
2023-04-27T01:03:30.309Z,9.34
2023-04-27T01:06:02.635Z,8.77
2023-04-27T01:08:34.876Z,8.84
2023-04-27T01:11:09.650Z,9.34
2023-04-27T01:13:41.834Z,9.10
2023-04-27T01:16:14.115Z,9.34
2023-04-27T01:18:46.989Z,9.33
2023-04-27T01:21:19.206Z,9.81
2023-04-27T01:23:54.010Z,9.46
2023-04-27T01:26:26.360Z,9.11
2023-04-27T01:28:58.513Z,9.13
2023-04-27T01:31:30.880Z,9.34
2023-04-27T01:34:03.561Z,9.28
2023-04-27T01:36:35.786Z,8.82
2023-04-27T01:39:10.727Z,8.26
2023-04-27T01:41:42.986Z,8.69
2023-04-27T01:44:15.283Z,8.13
2023-04-27T01:46:47.507Z,8.24
2023-04-27T01:49:19.987Z,8.78
2023-04-27T01:51:52.181Z,8.61
2023-04-27T01:54:28.702Z,8.38
2023-04-27T01:57:02.031Z,8.74
2023-04-27T01:59:34.287Z,8.22
2023-04-27T02:02:06.628Z,8.54
2023-04-27T02:04:38.970Z,8.31
2023-04-27T02:07:11.266Z,8.65
2023-04-27T02:09:46.175Z,8.52
2023-04-27T02:12:18.376Z,8.60
2023-04-27T02:14:50.596Z,8.66
2023-04-27T02:17:23.157Z,8.51
2023-04-27T02:19:55.526Z,8.34
2023-04-27T02:22:27.702Z,8.81
2023-04-27T02:25:03.209Z,8.88
2023-04-27T02:27:35.380Z,8.93
2023-04-27T02:30:09.577Z,9.18
2023-04-27T02:32:42.441Z,9.81
2023-04-27T02:35:15.151Z,9.37
2023-04-27T02:37:47.349Z,9.76
2023-04-27T02:40:22.285Z,9.94
2023-04-27T02:42:54.560Z,10.36
2023-04-27T02:45:26.796Z,10.50
2023-04-27T02:47:58.946Z,10.90
2023-04-27T02:50:31.238Z,10.64
2023-04-27T02:53:03.408Z,11.06
2023-04-27T02:55:38.223Z,10.90
2023-04-27T02:58:10.388Z,10.88
2023-04-27T03:00:43.277Z,11.16
2023-04-27T03:03:15.682Z,10.76
2023-04-27T03:05:47.975Z,10.94
2023-04-27T03:08:20.198Z,10.83
2023-04-27T03:10:54.945Z,10.65
2023-04-27T03:13:28.230Z,10.87
2023-04-27T03:16:00.495Z,10.67
2023-04-27T03:18:32.753Z,10.38
2023-04-27T03:21:10.296Z,10.44
2023-04-27T03:23:43.342Z,10.40
2023-04-27T03:26:19.117Z,10.94
2023-04-27T03:28:51.468Z,10.86
2023-04-27T03:31:23.694Z,11.01
2023-04-27T03:33:55.910Z,10.70
2023-04-27T03:36:28.663Z,11.16
2023-04-27T03:39:00.825Z,11.64
2023-04-27T03:41:35.562Z,11.08
2023-04-27T03:44:08.146Z,10.69
2023-04-27T03:46:40.290Z,11.15
2023-04-27T03:49:12.671Z,11.26
2023-04-27T03:51:45.110Z,11.89
2023-04-27T03:54:17.409Z,11.91
2023-04-27T03:56:52.550Z,11.74
2023-04-27T03:59:24.702Z,11.75
2023-04-27T04:02:00.211Z,11.61
2023-04-27T04:04:33.496Z,12.02
2023-04-27T04:07:06.093Z,11.46
2023-04-27T04:09:38.347Z,11.61
2023-04-27T04:12:13.195Z,11.52
2023-04-27T04:14:49.038Z,11.91
2023-04-27T04:17:21.623Z,11.49
2023-04-27T04:19:53.820Z,11.67
2023-04-27T04:22:26.148Z,11.85
2023-04-27T04:24:58.387Z,12.12
2023-04-27T04:27:33.715Z,11.80
2023-04-27T04:30:07.065Z,12.39
2023-04-27T04:32:40.706Z,12.99
2023-04-27T04:35:13.168Z,13.10
2023-04-27T04:37:45.336Z,13.09
2023-04-27T04:40:18.235Z,13.24
2023-04-27T04:42:53.165Z,13.48
2023-04-27T04:45:25.388Z,13.41
2023-04-27T04:47:57.981Z,12.99
2023-04-27T04:50:30.778Z,12.91
2023-04-27T04:53:02.977Z,13.35
2023-04-27T04:55:35.157Z,13.41
2023-04-27T04:58:10.047Z,13.65
2023-04-27T05:00:42.208Z,13.20
2023-04-27T05:03:14.411Z,13.41
2023-04-27T05:05:46.849Z,13.26
2023-04-27T05:08:19.520Z,13.04
2023-04-27T05:10:53.884Z,12.48
2023-04-27T05:13:29.239Z,12.78
2023-04-27T05:16:01.401Z,12.44
2023-04-27T05:18:33.597Z,12.49
2023-04-27T05:21:06.101Z,12.24
2023-04-27T05:23:38.247Z,12.31
2023-04-27T05:26:16.527Z,11.91
2023-04-27T05:28:52.157Z,12.72
2023-04-27T05:31:24.385Z,12.42
2023-04-27T05:33:56.553Z,12.47
2023-04-27T05:36:28.859Z,12.93
2023-04-27T05:39:01.087Z,12.86
2023-04-27T05:41:35.229Z,12.82
2023-04-27T05:44:11.185Z,12.89
2023-04-27T05:46:44.477Z,13.44
2023-04-27T05:49:16.578Z,13.49
2023-04-27T05:51:48.841Z,13.11
2023-04-27T05:54:21.139Z,13.55
2023-04-27T05:56:53.289Z,13.64
2023-04-27T05:59:29.487Z,13.32
2023-04-27T06:02:01.715Z,13.30
2023-04-27T06:04:33.965Z,13.99
2023-04-27T06:07:06.494Z,13.15
2023-04-27T06:09:38.652Z,12.96
2023-04-27T06:12:12.616Z,12.34
2023-04-27T06:14:47.356Z,11.80
2023-04-27T06:17:19.464Z,12.16
2023-04-27T06:19:51.836Z,11.55
2023-04-27T06:22:24.072Z,11.03
2023-04-27T06:24:56.694Z,11.59
2023-04-27T06:27:28.879Z,11.46
2023-04-27T06:30:03.713Z,11.41
2023-04-27T06:32:35.981Z,11.76
2023-04-27T06:35:08.603Z,12.41
2023-04-27T06:37:41.455Z,12.50
2023-04-27T06:40:14.558Z,12.06
2023-04-27T06:42:46.698Z,12.07
2023-04-27T06:45:21.568Z,11.75
2023-04-27T06:47:53.769Z,11.40
2023-04-27T06:50:25.961Z,11.24
2023-04-27T06:52:58.078Z,10.79
2023-04-27T06:55:30.291Z,10.44
2023-04-27T06:58:02.478Z,10.56
2023-04-27T07:00:37.292Z,10.91
2023-04-27T07:03:09.626Z,10.03
2023-04-27T07:05:41.877Z,9.89
2023-04-27T07:08:14.027Z,9.94
2023-04-27T07:10:46.315Z,9.46
2023-04-27T07:13:18.567Z,9.19
2023-04-27T07:16:01.321Z,9.04
2023-04-27T07:18:33.558Z,8.93
2023-04-27T07:21:06.879Z,9.00
2023-04-27T07:23:39.185Z,8.29
2023-04-27T07:26:11.674Z,7.71
2023-04-27T07:28:44.359Z,7.11
2023-04-27T07:31:19.135Z,6.89
2023-04-27T07:33:51.620Z,7.08
2023-04-27T07:36:23.772Z,6.51
2023-04-27T07:38:56.016Z,6.55
2023-04-27T07:41:28.209Z,6.49
2023-04-27T07:44:00.776Z,6.68
2023-04-27T07:46:35.528Z,6.00
2023-04-27T07:49:07.625Z,6.40
2023-04-27T07:51:39.903Z,6.38
2023-04-27T07:54:12.366Z,6.18
2023-04-27T07:56:46.090Z,6.86
2023-04-27T07:59:18.276Z,7.40
2023-04-27T08:01:55.676Z,6.54
2023-04-27T08:04:29.811Z,6.97
2023-04-27T08:07:02.569Z,7.30
2023-04-27T08:09:35.636Z,7.35
2023-04-27T08:12:08.289Z,6.81
2023-04-27T08:14:40.520Z,5.79
2023-04-27T08:17:15.244Z,6.49
2023-04-27T08:19:47.376Z,5.98
2023-04-27T08:22:19.553Z,5.83
2023-04-27T08:24:51.746Z,5.79
2023-04-27T08:27:23.940Z,5.66
2023-04-27T08:29:56.091Z,5.53
2023-04-27T08:32:31.505Z,6.51
2023-04-27T08:35:04.613Z,5.71
2023-04-27T08:37:36.803Z,5.71
2023-04-27T08:40:10.179Z,5.39
2023-04-27T08:42:45.901Z,4.88
2023-04-27T08:45:18.166Z,5.41
2023-04-27T08:47:52.919Z,5.66
2023-04-27T08:50:25.440Z,6.04
2023-04-27T08:52:57.658Z,5.74
2023-04-27T08:55:30.053Z,5.29
2023-04-27T08:58:04.366Z,4.95
2023-04-27T09:00:43.505Z,5.06
2023-04-27T09:03:27.589Z,5.60
2023-04-27T09:06:04.997Z,5.95
2023-04-27T09:08:48.763Z,5.74
2023-04-27T09:11:34.940Z,4.41
2023-04-27T09:14:18.938Z,4.04
2023-04-27T09:16:58.769Z,4.49
2023-04-27T09:19:34.631Z,4.82
2023-04-27T09:22:13.812Z,5.54
2023-04-27T09:24:55.053Z,5.76
2023-04-27T09:27:27.449Z,5.44
2023-04-27T09:29:59.610Z,5.61
2023-04-27T09:32:31.794Z,5.88
2023-04-27T09:35:07.834Z,6.44
2023-04-27T09:37:40.097Z,6.33
2023-04-27T09:40:13.612Z,6.55
2023-04-27T09:42:45.996Z,6.54
2023-04-27T09:45:19.056Z,6.46
2023-04-27T09:47:51.562Z,6.68
2023-04-27T09:50:26.520Z,6.49
2023-04-27T09:52:58.803Z,6.29
2023-04-27T09:55:38.202Z,6.60
2023-04-27T09:58:34.353Z,6.43
2023-04-27T10:01:17.711Z,6.67
2023-04-27T10:04:04.520Z,6.19
2023-04-27T10:07:04.179Z,6.29
2023-04-27T10:09:41.484Z,6.10
2023-04-27T10:12:22.837Z,6.21
2023-04-27T10:14:56.672Z,6.23
2023-04-27T10:17:32.883Z,6.29
2023-04-27T10:20:09.159Z,6.51
2023-04-27T10:22:46.194Z,6.24
2023-04-27T10:25:22.290Z,6.26
2023-04-27T10:27:56.346Z,6.60
2023-04-27T10:30:35.186Z,6.65
2023-04-27T10:33:11.112Z,6.79
2023-04-27T10:35:46.124Z,6.36
2023-04-27T10:38:24.545Z,6.43
2023-04-27T10:41:02.203Z,6.54
2023-04-27T10:43:36.095Z,6.70
2023-04-27T10:46:16.004Z,6.59
2023-04-27T10:48:49.280Z,6.84
2023-04-27T10:51:21.609Z,7.44
2023-04-27T10:54:00.149Z,6.84
2023-04-27T10:56:32.866Z,7.09
2023-04-27T10:59:07.833Z,6.89
2023-04-27T11:01:40.778Z,7.46
2023-04-27T11:04:13.270Z,7.19
2023-04-27T11:06:50.501Z,7.44
2023-04-27T11:09:32.683Z,7.16
2023-04-27T11:12:04.869Z,7.31
2023-04-27T11:14:38.223Z,7.45
2023-04-27T11:17:10.529Z,7.45
2023-04-27T11:19:49.818Z,7.56
2023-04-27T11:22:22.202Z,7.50
2023-04-27T11:24:57.984Z,7.69
2023-04-27T11:27:41.168Z,7.49
2023-04-27T11:30:24.721Z,7.12
2023-04-27T11:32:57.050Z,7.61
2023-04-27T11:35:37.574Z,7.52
2023-04-27T11:38:09.743Z,6.87
2023-04-27T11:40:44.526Z,7.16
2023-04-27T11:43:17.435Z,7.19
2023-04-27T11:45:50.038Z,7.30
2023-04-27T11:48:22.980Z,7.83
2023-04-27T11:50:55.523Z,7.54
2023-04-27T11:53:34.312Z,7.82
2023-04-27T11:56:11.389Z,7.92
2023-04-27T11:58:46.438Z,8.19
2023-04-27T12:01:27.676Z,8.11
2023-04-27T12:04:09.408Z,8.02
2023-04-27T12:06:41.782Z,8.26
2023-04-27T12:09:14.099Z,7.81
2023-04-27T12:11:48.851Z,8.21
2023-04-27T12:14:21.071Z,7.76
2023-04-27T12:16:53.230Z,8.14
2023-04-27T12:19:26.322Z,8.66
2023-04-27T12:21:59.413Z,8.61
2023-04-27T12:24:31.605Z,8.26
2023-04-27T12:27:07.728Z,7.64
2023-04-27T12:29:39.924Z,8.17
2023-04-27T12:32:12.163Z,8.73
2023-04-27T12:34:44.408Z,8.93
2023-04-27T12:37:16.791Z,8.79
2023-04-27T12:39:48.903Z,8.69
2023-04-27T12:42:24.389Z,8.76
2023-04-27T12:44:57.200Z,8.15
2023-04-27T12:47:46.622Z,7.82
2023-04-27T12:50:21.737Z,7.82
2023-04-27T12:52:53.953Z,8.17
2023-04-27T12:55:33.546Z,8.27
2023-04-27T12:58:09.361Z,8.16
2023-04-27T13:00:41.906Z,8.25
2023-04-27T13:03:14.396Z,8.39
2023-04-27T13:05:47.179Z,7.94
2023-04-27T13:08:19.366Z,8.36
2023-04-27T13:10:51.689Z,8.39
2023-04-27T13:13:26.515Z,8.16
2023-04-27T13:15:59.190Z,7.79
2023-04-27T13:18:34.890Z,8.42
2023-04-27T13:21:08.299Z,8.36
2023-04-27T13:23:40.608Z,8.28
2023-04-27T13:26:12.979Z,8.51
2023-04-27T13:28:49.146Z,7.97
2023-04-27T13:31:21.406Z,8.04
2023-04-27T13:33:53.716Z,7.99
2023-04-27T13:36:26.416Z,8.35
2023-04-27T13:38:58.619Z,8.24
2023-04-27T13:41:31.430Z,8.11
2023-04-27T13:44:06.292Z,8.25
2023-04-27T13:46:38.501Z,8.09
2023-04-27T13:49:11.105Z,8.32
2023-04-27T13:51:43.361Z,8.81
2023-04-27T13:54:15.831Z,8.36
2023-04-27T13:56:48.173Z,7.98
2023-04-27T13:59:22.967Z,8.06
2023-04-27T14:01:55.219Z,8.32
2023-04-27T14:04:27.394Z,7.79
2023-04-27T14:06:59.569Z,8.06
2023-04-27T14:09:31.767Z,7.12
2023-04-27T14:12:04.616Z,7.14
2023-04-27T14:14:41.776Z,6.99
2023-04-27T14:17:13.974Z,6.62
2023-04-27T14:19:46.615Z,7.09
2023-04-27T14:22:19.071Z,7.16
2023-04-27T14:24:52.153Z,6.65
2023-04-27T14:27:24.354Z,6.77
2023-04-27T14:29:59.062Z,6.38
2023-04-27T14:32:31.378Z,6.18
2023-04-27T14:35:03.825Z,6.20
2023-04-27T14:37:36.263Z,5.87
2023-04-27T14:40:09.516Z,6.54
2023-04-27T14:42:41.693Z,6.49
2023-04-27T14:45:18.340Z,6.01
2023-04-27T14:47:50.610Z,6.06
2023-04-27T14:50:23.310Z,5.99
2023-04-27T14:52:58.112Z,6.14
2023-04-27T14:55:30.332Z,6.11
2023-04-27T14:58:02.600Z,6.15
2023-04-27T15:00:37.374Z,6.02
2023-04-27T15:03:10.027Z,5.43
2023-04-27T15:05:42.518Z,5.49
2023-04-27T15:08:14.708Z,5.61
2023-04-27T15:10:46.876Z,5.18
2023-04-27T15:13:19.389Z,5.22
2023-04-27T15:15:58.557Z,5.18
2023-04-27T15:18:31.524Z,5.11
2023-04-27T15:21:04.493Z,4.83
2023-04-27T15:23:37.446Z,5.14
2023-04-27T15:26:09.950Z,5.34
2023-04-27T15:28:42.103Z,5.29
2023-04-27T15:31:16.911Z,5.11
2023-04-27T15:33:49.174Z,4.73
2023-04-27T15:36:23.061Z,4.71
2023-04-27T15:38:55.227Z,4.83
2023-04-27T15:41:27.510Z,4.74
2023-04-27T15:43:59.720Z,4.48
2023-04-27T15:46:34.449Z,4.19
2023-04-27T15:49:06.759Z,4.09
2023-04-27T15:51:38.921Z,4.33
2023-04-27T15:54:11.512Z,4.47
2023-04-27T15:56:43.679Z,4.51
2023-04-27T15:59:16.354Z,4.79
2023-04-27T16:01:51.381Z,4.24
2023-04-27T16:04:23.648Z,4.31
2023-04-27T16:06:56.064Z,4.76
2023-04-27T16:09:28.439Z,4.73
2023-04-27T16:12:00.609Z,4.80
2023-04-27T16:14:32.785Z,4.81
2023-04-27T16:17:07.550Z,5.02
2023-04-27T16:19:39.724Z,5.14
2023-04-27T16:22:12.004Z,5.31
2023-04-27T16:24:44.183Z,5.33
2023-04-27T16:27:16.641Z,5.52
2023-04-27T16:29:49.829Z,5.20
2023-04-27T16:32:24.679Z,5.09
2023-04-27T16:34:57.473Z,4.95
2023-04-27T16:37:29.756Z,5.26
2023-04-27T16:40:06.882Z,5.21
2023-04-27T16:42:39.316Z,5.26
2023-04-27T16:45:12.389Z,4.99
2023-04-27T16:47:49.052Z,5.50
2023-04-27T16:50:21.458Z,5.25
2023-04-27T16:52:54.059Z,5.54
2023-04-27T16:55:28.596Z,5.68
2023-04-27T16:58:00.752Z,5.38
2023-04-27T17:00:33.569Z,5.30
2023-04-27T17:03:08.528Z,5.33
2023-04-27T17:05:40.859Z,7.84
2023-04-27T17:08:13.624Z,10.54
2023-04-27T17:10:45.873Z,8.55
2023-04-27T17:13:18.044Z,7.46
2023-04-27T17:15:50.354Z,7.18
2023-04-27T17:18:25.150Z,7.18
2023-04-27T17:20:57.323Z,7.80
2023-04-27T17:23:29.640Z,7.84
2023-04-27T17:26:01.792Z,7.87
2023-04-27T17:28:34.213Z,7.94
2023-04-27T17:31:06.513Z,7.35
2023-04-27T17:33:42.766Z,7.00
2023-04-27T17:36:15.173Z,7.36
2023-04-27T17:38:47.344Z,7.76
2023-04-27T17:41:19.517Z,7.45
2023-04-27T17:43:52.025Z,7.14
2023-04-27T17:46:24.221Z,7.88
2023-04-27T17:48:59.088Z,7.83
2023-04-27T17:51:31.260Z,7.90
2023-04-27T17:54:03.430Z,7.86
2023-04-27T17:56:35.908Z,7.25
2023-04-27T17:59:08.530Z,8.59
2023-04-27T18:01:40.767Z,10.70
2023-04-27T18:04:15.662Z,9.81
2023-04-27T18:06:47.974Z,11.87
2023-04-27T18:09:20.191Z,14.59
2023-04-27T18:11:52.452Z,13.24
2023-04-27T18:14:24.579Z,15.70
2023-04-27T18:16:56.987Z,18.46
2023-04-27T18:19:31.884Z,15.89
2023-04-27T18:22:04.143Z,28.19
2023-04-27T18:24:36.354Z,18.14
2023-04-27T18:27:08.765Z,14.24
2023-04-27T18:29:41.052Z,14.89
2023-04-27T18:32:13.459Z,10.29
2023-04-27T18:34:48.366Z,10.51
2023-04-27T18:37:20.759Z,10.98
2023-04-27T18:39:53.222Z,10.74
2023-04-27T18:42:25.553Z,9.81
2023-04-27T18:45:00.523Z,10.51
2023-04-27T18:47:33.071Z,9.11
2023-04-27T18:50:08.476Z,13.94
2023-04-27T18:52:40.678Z,18.41
2023-04-27T18:55:14.108Z,24.63
2023-04-27T18:57:46.396Z,20.28
2023-04-27T19:00:19.434Z,17.39
2023-04-27T19:02:52.309Z,12.53
2023-04-27T19:05:27.352Z,10.58
2023-04-27T19:07:59.586Z,10.51
2023-04-27T19:10:32.054Z,10.25
2023-04-27T19:13:04.512Z,10.93
2023-04-27T19:15:36.697Z,10.85
2023-04-27T19:18:10.964Z,10.01
2023-04-27T19:20:46.406Z,10.79
2023-04-27T19:23:19.352Z,11.50
2023-04-27T19:25:51.865Z,13.98
2023-04-27T19:28:27.358Z,13.23
2023-04-27T19:30:59.803Z,11.27
2023-04-27T19:33:31.994Z,11.63
2023-04-27T19:36:06.797Z,11.41
2023-04-27T19:38:39.555Z,11.61
2023-04-27T19:41:14.127Z,11.88
2023-04-27T19:43:46.359Z,11.79
2023-04-27T19:46:18.615Z,12.92
2023-04-27T19:48:50.843Z,14.06
2023-04-27T19:51:25.665Z,12.50
2023-04-27T19:53:57.829Z,13.96
2023-04-27T19:56:29.990Z,15.64
2023-04-27T19:59:02.141Z,13.66
2023-04-27T20:01:34.332Z,11.16
2023-04-27T20:04:06.767Z,10.71
2023-04-27T20:06:43.485Z,10.91
2023-04-27T20:09:15.763Z,10.79
2023-04-27T20:11:47.983Z,10.78
2023-04-27T20:14:20.695Z,11.44
2023-04-27T20:16:52.868Z,10.91
2023-04-27T20:19:25.342Z,10.38
2023-04-27T20:22:02.288Z,10.28
2023-04-27T20:24:35.591Z,10.68
2023-04-27T20:27:08.458Z,11.74
2023-04-27T20:29:40.838Z,13.26
2023-04-27T20:32:13.017Z,10.03
2023-04-27T20:34:45.292Z,9.81
2023-04-27T20:37:19.975Z,9.64
2023-04-27T20:39:52.189Z,9.53
2023-04-27T20:42:24.694Z,9.45
2023-04-27T20:44:57.489Z,9.74
2023-04-27T20:47:29.686Z,9.86
2023-04-27T20:50:02.010Z,9.71
2023-04-27T20:52:36.906Z,9.59
2023-04-27T20:55:10.071Z,9.92
2023-04-27T20:57:42.307Z,9.75
2023-04-27T21:00:15.840Z,9.78
2023-04-27T21:02:48.459Z,10.11
2023-04-27T21:05:20.667Z,10.01
2023-04-27T21:07:55.408Z,9.98
2023-04-27T21:10:27.599Z,9.87
2023-04-27T21:13:00.493Z,10.12
2023-04-27T21:15:33.610Z,9.81
2023-04-27T21:18:09.367Z,9.95
2023-04-27T21:20:43.366Z,9.70
2023-04-27T21:23:19.470Z,9.84
2023-04-27T21:25:52.102Z,9.84
2023-04-27T21:28:24.325Z,9.90
2023-04-27T21:30:56.559Z,9.93
2023-04-27T21:33:28.818Z,9.84
2023-04-27T21:36:01.161Z,9.99
2023-04-27T21:38:35.968Z,10.13
2023-04-27T21:41:08.159Z,10.04
2023-04-27T21:43:42.104Z,10.04
2023-04-27T21:46:14.518Z,10.39
2023-04-27T21:48:46.755Z,10.26
2023-04-27T21:51:18.911Z,10.48
2023-04-27T21:53:53.671Z,10.46
2023-04-27T21:56:25.987Z,10.20
2023-04-27T21:58:58.437Z,10.57
2023-04-27T22:01:30.982Z,10.98
2023-04-27T22:04:04.270Z,10.48
2023-04-27T22:06:36.660Z,10.56
2023-04-27T22:09:12.445Z,10.81
2023-04-27T22:11:44.709Z,11.16
2023-04-27T22:14:17.297Z,10.81
2023-04-27T22:16:49.671Z,11.06
2023-04-27T22:19:21.864Z,10.97
2023-04-27T22:21:54.010Z,11.53
2023-04-27T22:24:28.869Z,11.50
2023-04-27T22:27:01.047Z,11.33
2023-04-27T22:29:33.606Z,11.19
2023-04-27T22:32:06.114Z,11.05
2023-04-27T22:34:38.624Z,10.94
2023-04-27T22:37:11.312Z,11.19
2023-04-27T22:39:46.320Z,10.95
2023-04-27T22:42:18.498Z,11.05
2023-04-27T22:44:50.664Z,11.29
2023-04-27T22:47:22.898Z,11.27
2023-04-27T22:49:55.681Z,11.26
2023-04-27T22:52:27.861Z,10.83
2023-04-27T22:55:03.099Z,10.94
2023-04-27T22:57:35.317Z,10.88
2023-04-27T23:00:09.153Z,11.11
2023-04-27T23:02:41.643Z,11.18
2023-04-27T23:05:14.173Z,10.79
2023-04-27T23:07:46.538Z,11.26
2023-04-27T23:10:21.726Z,10.96
2023-04-27T23:12:55.051Z,11.16
2023-04-27T23:15:27.304Z,10.70
2023-04-27T23:17:59.469Z,11.11
2023-04-27T23:20:31.956Z,10.82
2023-04-27T23:23:04.339Z,10.59
2023-04-27T23:25:39.135Z,10.46
2023-04-27T23:28:11.336Z,10.76
2023-04-27T23:30:43.567Z,10.62
2023-04-27T23:33:15.817Z,10.53
2023-04-27T23:35:48.323Z,10.18
2023-04-27T23:38:20.648Z,10.38
2023-04-27T23:40:55.457Z,10.55
2023-04-27T23:43:27.738Z,10.37
2023-04-27T23:46:00.005Z,10.28
2023-04-27T23:48:32.254Z,10.27
2023-04-27T23:51:05.136Z,10.31
2023-04-27T23:53:37.319Z,10.19
2023-04-27T23:56:20.300Z,10.30
2023-04-27T23:58:52.672Z,10.09
